Time;durP1;ratioP1;P1;durP2;ratioP2;P2;SDS_P1;SDS_P2;PMS_P1;PMS_P2;Temp;Humidity;BMP_temperature;BMP_pressure;BME280_temperature;BME280_humidity;BME280_pressure;Samples;Min_cycle;Max_cycle;Signal;HPM_P1;HPM_P2
2021/12/31 00:00:51;;;;;;;246.60;120.28;;;;;;;;;;5033424;28;20119;-64
2021/12/31 00:03:18;;;;;;;217.30;107.53;;;;;;;;;;5033728;28;20036;-64
2021/12/31 00:05:44;;;;;;;228.77;105.75;;;;;;;;;;5034286;28;20066;-63
2021/12/31 00:08:11;;;;;;;221.75;109.53;;;;;;;;;;5033591;28;20451;-63
2021/12/31 00:10:38;;;;;;;238.63;119.43;;;;;;;;;;5033840;28;20514;-63
2021/12/31 00:13:04;;;;;;;263.88;131.13;;;;;;;;;;5034058;28;20032;-64
2021/12/31 00:15:30;;;;;;;275.88;139.35;;;;;;;;;;5033710;28;20162;-63
2021/12/31 00:17:56;;;;;;;267.17;130.73;;;;;;;;;;5034050;28;20080;-64
2021/12/31 00:20:24;;;;;;;283.33;138.70;;;;;;;;;;5034294;28;20480;-64
2021/12/31 00:23:06;;;;;;;288.83;142.82;;;;;;;;;;5033540;28;20026;-63
2021/12/31 00:25:36;;;;;;;285.42;138.30;;;;;;;;;;5034744;28;20426;-63
2021/12/31 00:28:03;;;;;;;265.92;132.55;;;;;;;;;;5033548;28;20057;-63
2021/12/31 00:30:29;;;;;;;259.55;124.10;;;;;;;;;;5033563;28;20515;-63
2021/12/31 00:32:55;;;;;;;226.25;106.43;;;;;;;;;;5033547;28;20472;-64
2021/12/31 00:35:22;;;;;;;201.00;99.82;;;;;;;;;;5033206;28;20401;-63
2021/12/31 00:37:48;;;;;;;195.45;97.30;;;;;;;;;;5034529;28;20036;-63
2021/12/31 00:40:15;;;;;;;171.88;82.78;;;;;;;;;;5033754;28;20353;-63
2021/12/31 00:42:41;;;;;;;150.27;71.15;;;;;;;;;;5033569;28;20136;-64
2021/12/31 00:45:09;;;;;;;133.25;63.03;;;;;;;;;;5033631;28;20028;-63
2021/12/31 00:47:35;;;;;;;126.20;60.67;;;;;;;;;;5034062;28;20071;-64
2021/12/31 00:50:01;;;;;;;112.25;55.75;;;;;;;;;;5033315;28;20044;-63
2021/12/31 00:52:28;;;;;;;148.90;70.05;;;;;;;;;;5033296;28;20025;-64
2021/12/31 00:54:54;;;;;;;176.82;86.47;;;;;;;;;;5033494;28;20033;-63
2021/12/31 00:57:20;;;;;;;183.05;89.80;;;;;;;;;;5033227;28;20108;-63
2021/12/31 00:59:47;;;;;;;188.55;90.75;;;;;;;;;;5034222;28;20099;-63
2021/12/31 01:02:13;;;;;;;170.52;83.88;;;;;;;;;;5033160;28;20021;-63
2021/12/31 01:04:40;;;;;;;196.73;97.82;;;;;;;;;;5032769;28;20115;-63
2021/12/31 01:07:06;;;;;;;205.45;103.28;;;;;;;;;;5033155;28;20053;-63
2021/12/31 01:09:32;;;;;;;206.70;103.13;;;;;;;;;;5033154;28;20033;-64
2021/12/31 01:12:01;;;;;;;214.75;102.22;;;;;;;;;;5033152;28;20029;-64
2021/12/31 01:14:34;;;;;;;213.23;101.82;;;;;;;;;;5035560;28;20033;-63
2021/12/31 01:17:04;;;;;;;183.75;86.47;;;;;;;;;;5037135;28;20029;-63
2021/12/31 01:19:46;;;;;;;168.43;80.95;;;;;;;;;;5037600;28;20104;-63
2021/12/31 01:22:26;;;;;;;161.32;76.25;;;;;;;;;;5037090;28;20021;-65
2021/12/31 01:24:52;;;;;;;158.70;75.35;;;;;;;;;;5037284;28;20059;-63
2021/12/31 01:27:18;;;;;;;158.40;74.10;;;;;;;;;;5037206;28;20038;-63
2021/12/31 01:29:44;;;;;;;157.27;77.68;;;;;;;;;;5037394;28;20026;-64
2021/12/31 01:32:11;;;;;;;144.63;66.20;;;;;;;;;;5036745;28;20053;-62
2021/12/31 01:34:37;;;;;;;133.30;64.72;;;;;;;;;;5019645;28;20430;-63
2021/12/31 01:37:04;;;;;;;128.85;63.08;;;;;;;;;;5037260;28;20033;-63
2021/12/31 01:39:30;;;;;;;133.80;63.67;;;;;;;;;;5036779;28;20029;-63
2021/12/31 01:41:58;;;;;;;124.03;61.38;;;;;;;;;;5037192;28;20049;-64
2021/12/31 01:44:29;;;;;;;117.05;58.42;;;;;;;;;;5036695;28;20430;-62
2021/12/31 01:46:59;;;;;;;129.02;61.80;;;;;;;;;;5036873;28;20052;-65
2021/12/31 01:49:33;;;;;;;124.30;58.47;;;;;;;;;;5036518;28;20029;-63
2021/12/31 01:52:00;;;;;;;117.28;55.05;;;;;;;;;;5036691;28;20029;-63
2021/12/31 01:54:26;;;;;;;106.15;54.72;;;;;;;;;;5036843;28;20032;-64
2021/12/31 01:56:53;;;;;;;118.90;58.05;;;;;;;;;;5036456;28;20029;-63
2021/12/31 01:59:19;;;;;;;128.93;60.67;;;;;;;;;;5036422;28;20087;-63
2021/12/31 02:01:46;;;;;;;130.00;62.55;;;;;;;;;;5036604;28;20022;-64
2021/12/31 02:04:13;;;;;;;125.07;64.43;;;;;;;;;;5036541;28;20053;-63
2021/12/31 02:06:39;;;;;;;135.32;68.80;;;;;;;;;;5036262;28;20033;-64
2021/12/31 02:09:06;;;;;;;141.13;70.18;;;;;;;;;;5036406;28;20033;-65
2021/12/31 02:11:32;;;;;;;149.80;73.30;;;;;;;;;;5036067;28;20515;-64
2021/12/31 02:14:00;;;;;;;151.68;69.10;;;;;;;;;;5036196;28;20130;-62
2021/12/31 02:16:27;;;;;;;125.57;61.33;;;;;;;;;;5036394;28;20025;-63
2021/12/31 02:18:53;;;;;;;150.80;65.07;;;;;;;;;;5036286;28;20032;-65
2021/12/31 02:21:21;;;;;;;148.52;64.60;;;;;;;;;;5036367;28;20067;-63
2021/12/31 02:23:52;;;;;;;128.25;58.90;;;;;;;;;;5036229;28;20498;-64
2021/12/31 02:26:18;;;;;;;102.32;47.10;;;;;;;;;;5035831;28;20061;-63
2021/12/31 02:28:44;;;;;;;97.07;43.88;;;;;;;;;;5035799;28;20078;-64
2021/12/31 02:31:11;;;;;;;98.40;45.80;;;;;;;;;;5036014;28;20052;-65
2021/12/31 02:33:37;;;;;;;96.53;42.67;;;;;;;;;;5035743;28;20087;-64
2021/12/31 02:36:05;;;;;;;84.78;38.38;;;;;;;;;;5036811;28;20025;-65
2021/12/31 02:38:31;;;;;;;69.03;32.05;;;;;;;;;;5035694;28;20039;-65
2021/12/31 02:40:57;;;;;;;60.65;28.92;;;;;;;;;;5035491;28;20375;-65
2021/12/31 02:43:23;;;;;;;62.10;28.67;;;;;;;;;;5036144;28;20105;-63
2021/12/31 02:45:49;;;;;;;63.85;29.02;;;;;;;;;;5035811;28;20472;-63
2021/12/31 02:48:24;;;;;;;58.75;28.90;;;;;;;;;;5035218;28;20026;-64
2021/12/31 02:50:51;;;;;;;62.42;28.27;;;;;;;;;;5035430;28;20072;-63
2021/12/31 02:53:17;;;;;;;61.30;28.08;;;;;;;;;;5017912;28;20018;-63
2021/12/31 02:55:44;;;;;;;75.00;31.13;;;;;;;;;;5035069;28;20033;-63
2021/12/31 02:58:11;;;;;;;57.55;28.58;;;;;;;;;;5035582;28;20025;-63
2021/12/31 03:00:40;;;;;;;66.03;30.08;;;;;;;;;;5035531;28;20017;-63
2021/12/31 03:03:08;;;;;;;64.63;30.52;;;;;;;;;;5035193;28;20022;-63
2021/12/31 03:05:35;;;;;;;59.58;28.00;;;;;;;;;;5035080;28;20472;-64
2021/12/31 03:08:03;;;;;;;65.32;32.22;;;;;;;;;;5035085;28;20494;-66
2021/12/31 03:10:30;;;;;;;62.00;28.27;;;;;;;;;;5035098;28;20031;-65
2021/12/31 03:12:57;;;;;;;61.70;27.60;;;;;;;;;;5034965;28;20025;-63
2021/12/31 03:15:24;;;;;;;67.68;31.17;;;;;;;;;;5035504;28;20028;-63
2021/12/31 03:17:50;;;;;;;64.93;30.38;;;;;;;;;;5034629;28;20407;-63
2021/12/31 03:20:25;;;;;;;56.80;27.90;;;;;;;;;;5034898;28;20020;-63
2021/12/31 03:22:52;;;;;;;53.30;27.27;;;;;;;;;;5034834;28;20455;-63
2021/12/31 03:25:18;;;;;;;56.40;26.77;;;;;;;;;;5035056;28;20374;-64
2021/12/31 03:27:45;;;;;;;52.33;25.45;;;;;;;;;;5034884;28;20492;-64
2021/12/31 03:30:13;;;;;;;55.58;25.92;;;;;;;;;;5034689;28;20032;-64
2021/12/31 03:32:39;;;;;;;46.25;24.80;;;;;;;;;;5034597;28;20026;-65
2021/12/31 03:35:06;;;;;;;61.42;28.88;;;;;;;;;;5034998;28;20067;-64
2021/12/31 03:37:32;;;;;;;82.20;36.72;;;;;;;;;;5033682;28;20025;-64
2021/12/31 03:39:58;;;;;;;67.38;32.80;;;;;;;;;;5034537;28;20021;-63
2021/12/31 03:42:24;;;;;;;63.00;32.60;;;;;;;;;;5034630;28;20542;-64
2021/12/31 03:44:50;;;;;;;60.17;32.10;;;;;;;;;;5033904;28;20052;-64
2021/12/31 03:47:16;;;;;;;68.97;35.17;;;;;;;;;;5034527;28;20108;-64
2021/12/31 03:49:43;;;;;;;66.53;33.40;;;;;;;;;;5034586;28;20025;-65
2021/12/31 03:52:09;;;;;;;56.53;29.13;;;;;;;;;;5033976;28;20028;-63
2021/12/31 03:54:35;;;;;;;61.42;29.50;;;;;;;;;;5034237;28;20048;-64
2021/12/31 03:57:01;;;;;;;57.60;30.42;;;;;;;;;;5034157;28;20017;-64
2021/12/31 03:59:27;;;;;;;50.05;26.73;;;;;;;;;;5033814;28;20021;-64
2021/12/31 04:01:53;;;;;;;54.40;29.02;;;;;;;;;;5034392;28;20026;-63
2021/12/31 04:04:19;;;;;;;61.25;30.40;;;;;;;;;;5034306;28;20028;-64
2021/12/31 04:06:46;;;;;;;60.05;30.15;;;;;;;;;;5033983;28;20091;-63
2021/12/31 04:09:12;;;;;;;64.82;30.13;;;;;;;;;;5033238;28;20041;-63
2021/12/31 04:11:38;;;;;;;54.42;28.75;;;;;;;;;;5034095;28;20029;-64
2021/12/31 04:14:04;;;;;;;59.28;28.02;;;;;;;;;;5034066;28;20148;-63
2021/12/31 04:16:30;;;;;;;54.58;25.75;;;;;;;;;;5032964;28;20033;-64
2021/12/31 04:18:57;;;;;;;43.83;23.67;;;;;;;;;;5033387;28;20082;-65
2021/12/31 04:21:24;;;;;;;42.47;21.85;;;;;;;;;;5034012;28;20079;-64
2021/12/31 04:24:06;;;;;;;40.00;22.67;;;;;;;;;;5033773;28;20537;-64
2021/12/31 04:26:32;;;;;;;53.45;25.25;;;;;;;;;;5033341;28;20034;-64
2021/12/31 04:28:59;;;;;;;67.25;32.22;;;;;;;;;;5033877;28;20498;-63
2021/12/31 04:31:25;;;;;;;51.72;25.80;;;;;;;;;;5033512;28;20022;-63
2021/12/31 04:33:51;;;;;;;54.50;27.33;;;;;;;;;;5033587;28;20029;-64
2021/12/31 04:36:17;;;;;;;45.63;25.08;;;;;;;;;;5034147;28;20032;-64
2021/12/31 04:38:43;;;;;;;54.95;24.38;;;;;;;;;;5033829;28;20025;-65
2021/12/31 04:41:09;;;;;;;47.58;22.00;;;;;;;;;;5033242;28;20017;-63
2021/12/31 04:43:35;;;;;;;40.42;21.52;;;;;;;;;;5033053;28;20096;-65
2021/12/31 04:46:02;;;;;;;46.47;24.35;;;;;;;;;;5033053;28;20030;-64
2021/12/31 04:48:28;;;;;;;48.83;24.27;;;;;;;;;;5032336;28;20033;-63
2021/12/31 04:50:54;;;;;;;60.05;27.92;;;;;;;;;;5033161;28;20021;-65
2021/12/31 04:53:20;;;;;;;60.17;26.33;;;;;;;;;;5032620;28;20024;-64
2021/12/31 04:55:46;;;;;;;86.07;40.10;;;;;;;;;;5032811;28;20024;-64
2021/12/31 04:58:12;;;;;;;90.78;40.67;;;;;;;;;;5033067;28;20030;-64
2021/12/31 05:00:39;;;;;;;106.47;46.55;;;;;;;;;;5032392;28;20438;-64
2021/12/31 05:03:11;;;;;;;129.23;54.30;;;;;;;;;;5032403;28;20025;-64
2021/12/31 05:05:37;;;;;;;84.20;40.80;;;;;;;;;;5032723;28;20029;-64
2021/12/31 05:08:04;;;;;;;123.60;51.03;;;;;;;;;;5032301;28;20034;-63
2021/12/31 05:10:32;;;;;;;103.53;43.50;;;;;;;;;;5032550;28;20040;-64
2021/12/31 05:12:58;;;;;;;95.00;40.17;;;;;;;;;;5032531;28;20372;-63
2021/12/31 05:15:27;;;;;;;109.28;46.72;;;;;;;;;;5032269;28;20018;-64
2021/12/31 05:17:54;;;;;;;98.72;44.88;;;;;;;;;;5032475;28;20029;-64
2021/12/31 05:20:21;;;;;;;101.88;46.47;;;;;;;;;;5032769;28;20403;-65
2021/12/31 05:22:47;;;;;;;101.35;46.95;;;;;;;;;;5032332;28;20017;-64
2021/12/31 05:25:13;;;;;;;117.32;53.33;;;;;;;;;;5032406;28;20021;-63
2021/12/31 05:27:39;;;;;;;113.15;50.03;;;;;;;;;;5032427;28;20490;-64
2021/12/31 05:30:06;;;;;;;89.43;44.13;;;;;;;;;;5032157;28;20371;-63
2021/12/31 05:32:32;;;;;;;89.40;42.80;;;;;;;;;;5032100;28;20033;-65
2021/12/31 05:34:58;;;;;;;88.93;41.55;;;;;;;;;;5032353;28;20423;-65
2021/12/31 05:37:25;;;;;;;94.78;40.55;;;;;;;;;;5031671;28;20076;-64
2021/12/31 05:39:51;;;;;;;81.05;38.80;;;;;;;;;;5032240;28;20071;-65
2021/12/31 05:42:17;;;;;;;86.97;41.00;;;;;;;;;;4979436;28;1241562;-63
2021/12/31 05:44:44;;;;;;;86.53;40.20;;;;;;;;;;5033053;28;20451;-64
2021/12/31 05:47:11;;;;;;;85.70;40.50;;;;;;;;;;5032734;28;20053;-63
2021/12/31 05:49:37;;;;;;;112.70;54.60;;;;;;;;;;5032090;28;20036;-63
2021/12/31 05:52:04;;;;;;;101.68;49.28;;;;;;;;;;5032965;28;20026;-64
2021/12/31 05:54:30;;;;;;;87.93;41.75;;;;;;;;;;5033105;28;20103;-63
2021/12/31 05:56:56;;;;;;;91.13;42.10;;;;;;;;;;5032438;28;20068;-64
2021/12/31 05:59:23;;;;;;;71.57;36.35;;;;;;;;;;5033363;28;20082;-64
2021/12/31 06:01:49;;;;;;;65.78;32.53;;;;;;;;;;5035738;28;20059;-63
2021/12/31 06:04:16;;;;;;;61.00;30.73;;;;;;;;;;5035783;28;20029;-64
2021/12/31 06:06:42;;;;;;;59.08;29.75;;;;;;;;;;5036211;28;20034;-64
2021/12/31 06:09:09;;;;;;;56.78;31.60;;;;;;;;;;5036529;28;20061;-63
2021/12/31 06:11:35;;;;;;;57.42;28.15;;;;;;;;;;5035009;28;20380;-64
2021/12/31 06:14:04;;;;;;;50.30;26.08;;;;;;;;;;5036414;28;20018;-64
2021/12/31 06:16:38;;;;;;;112.60;53.25;;;;;;;;;;5035948;28;20017;-64
2021/12/31 06:19:05;;;;;;;150.75;66.20;;;;;;;;;;5034819;28;20059;-64
2021/12/31 06:21:33;;;;;;;213.50;101.63;;;;;;;;;;5035968;28;20032;-63
2021/12/31 06:24:00;;;;;;;166.10;75.88;;;;;;;;;;5036057;28;20029;-63
2021/12/31 06:26:26;;;;;;;170.27;74.82;;;;;;;;;;5035952;28;20113;-62
2021/12/31 06:28:52;;;;;;;126.53;64.28;;;;;;;;;;5034861;28;20025;-64
2021/12/31 06:31:18;;;;;;;180.40;82.30;;;;;;;;;;5036195;28;20036;-64
2021/12/31 06:33:44;;;;;;;188.27;89.40;;;;;;;;;;5035778;28;20029;-63
2021/12/31 06:36:11;;;;;;;214.48;106.53;;;;;;;;;;5036310;28;20026;-64
2021/12/31 06:38:37;;;;;;;236.75;111.18;;;;;;;;;;5035717;28;20483;-63
2021/12/31 06:41:03;;;;;;;162.57;76.57;;;;;;;;;;5035786;28;20025;-64
2021/12/31 06:43:29;;;;;;;134.90;64.03;;;;;;;;;;5036539;28;20026;-63
2021/12/31 06:45:55;;;;;;;83.40;41.03;;;;;;;;;;5035303;28;20100;-63
2021/12/31 06:48:21;;;;;;;85.88;40.75;;;;;;;;;;5035715;28;20037;-65
2021/12/31 06:50:47;;;;;;;98.22;46.92;;;;;;;;;;5035534;28;20026;-65
2021/12/31 06:53:14;;;;;;;90.85;41.47;;;;;;;;;;5035198;28;20063;-64
2021/12/31 06:55:40;;;;;;;68.93;34.65;;;;;;;;;;5035648;28;20503;-64
2021/12/31 06:58:06;;;;;;;49.92;27.40;;;;;;;;;;5035082;28;20034;-64
2021/12/31 07:00:32;;;;;;;51.80;27.83;;;;;;;;;;5034210;28;20036;-63
2021/12/31 07:03:05;;;;;;;44.88;26.60;;;;;;;;;;5035301;28;20407;-63
2021/12/31 07:05:32;;;;;;;48.42;24.63;;;;;;;;;;5034155;28;20503;-64
2021/12/31 07:07:58;;;;;;;60.03;31.55;;;;;;;;;;5034568;28;20057;-63
2021/12/31 07:10:24;;;;;;;63.45;32.67;;;;;;;;;;5033228;28;20478;-62
2021/12/31 07:12:55;;;;;;;95.03;45.08;;;;;;;;;;5033156;28;20018;-63
2021/12/31 07:15:21;;;;;;;95.55;50.03;;;;;;;;;;5034451;28;20064;-62
2021/12/31 07:17:48;;;;;;;123.20;65.43;;;;;;;;;;5035009;28;20076;-63
2021/12/31 07:20:14;;;;;;;96.20;48.88;;;;;;;;;;5034841;28;20028;-63
2021/12/31 07:22:40;;;;;;;198.68;103.45;;;;;;;;;;5034431;28;20017;-63
2021/12/31 07:25:06;;;;;;;120.63;59.50;;;;;;;;;;5034659;28;20025;-64
2021/12/31 07:27:33;;;;;;;139.40;65.90;;;;;;;;;;5034228;28;20500;-63
2021/12/31 07:29:59;;;;;;;111.32;56.63;;;;;;;;;;5034581;28;20021;-64
2021/12/31 07:32:26;;;;;;;121.05;66.88;;;;;;;;;;5034580;28;20452;-64
2021/12/31 07:34:53;;;;;;;91.90;52.40;;;;;;;;;;5033927;28;20379;-64
2021/12/31 07:37:19;;;;;;;93.63;47.90;;;;;;;;;;5034177;28;20367;-65
2021/12/31 07:39:47;;;;;;;75.90;39.20;;;;;;;;;;5034466;28;20021;-62
2021/12/31 07:42:14;;;;;;;72.63;38.63;;;;;;;;;;5034232;28;20444;-63
2021/12/31 07:44:40;;;;;;;75.65;37.47;;;;;;;;;;5034399;28;20140;-62
2021/12/31 07:47:06;;;;;;;76.60;40.78;;;;;;;;;;5033916;28;20065;-63
2021/12/31 07:49:32;;;;;;;105.38;53.47;;;;;;;;;;5034178;28;20021;-63
2021/12/31 07:51:59;;;;;;;93.10;44.53;;;;;;;;;;5034438;28;20021;-62
2021/12/31 07:54:25;;;;;;;63.80;36.50;;;;;;;;;;5033341;28;20010;-64
2021/12/31 07:56:51;;;;;;;88.88;43.45;;;;;;;;;;5033892;28;20025;-63
2021/12/31 07:59:17;;;;;;;100.57;47.38;;;;;;;;;;5033384;28;20026;-62
2021/12/31 08:01:43;;;;;;;82.03;40.45;;;;;;;;;;5033418;28;20083;-63
2021/12/31 08:04:09;;;;;;;76.65;38.45;;;;;;;;;;5031488;28;20070;-63
2021/12/31 08:06:35;;;;;;;81.57;41.80;;;;;;;;;;5033810;28;20495;-64
2021/12/31 08:09:02;;;;;;;89.78;45.60;;;;;;;;;;5033805;28;20472;-63
2021/12/31 08:11:28;;;;;;;89.70;46.97;;;;;;;;;;5031139;28;20025;-62
2021/12/31 08:13:54;;;;;;;77.80;42.50;;;;;;;;;;5033163;28;20022;-64
2021/12/31 08:16:20;;;;;;;66.72;36.97;;;;;;;;;;5033636;28;20028;-63
2021/12/31 08:18:46;;;;;;;65.25;37.70;;;;;;;;;;5034367;28;20061;-63
2021/12/31 08:21:12;;;;;;;63.42;36.17;;;;;;;;;;5033769;28;20472;-62
2021/12/31 08:23:38;;;;;;;63.42;35.95;;;;;;;;;;5033644;28;20018;-64
2021/12/31 08:26:05;;;;;;;69.13;36.88;;;;;;;;;;5034552;28;20021;-62
2021/12/31 08:28:31;;;;;;;64.05;34.95;;;;;;;;;;5033639;28;20029;-63
2021/12/31 08:30:58;;;;;;;71.38;38.25;;;;;;;;;;5016183;28;20108;-65
2021/12/31 08:33:26;;;;;;;77.68;43.15;;;;;;;;;;5034358;28;20026;-62
2021/12/31 08:35:52;;;;;;;65.65;35.30;;;;;;;;;;5033500;28;20030;-63
2021/12/31 08:38:18;;;;;;;69.72;36.30;;;;;;;;;;5033575;28;20026;-62
2021/12/31 08:40:45;;;;;;;65.30;36.40;;;;;;;;;;5033599;28;20075;-63
2021/12/31 08:43:11;;;;;;;68.65;39.53;;;;;;;;;;5033482;28;20099;-64
2021/12/31 08:45:37;;;;;;;79.60;43.33;;;;;;;;;;5033665;28;20032;-65
2021/12/31 08:48:04;;;;;;;86.95;45.53;;;;;;;;;;5032988;28;20055;-62
2021/12/31 08:50:30;;;;;;;78.75;44.30;;;;;;;;;;5033388;28;20021;-63
2021/12/31 08:52:57;;;;;;;88.43;45.85;;;;;;;;;;5033624;28;20456;-63
2021/12/31 08:55:23;;;;;;;85.40;43.53;;;;;;;;;;5033156;28;20459;-65
2021/12/31 08:57:49;;;;;;;72.57;39.05;;;;;;;;;;5033549;28;20029;-63
2021/12/31 09:00:16;;;;;;;81.38;43.70;;;;;;;;;;5033566;28;20031;-64
2021/12/31 09:02:45;;;;;;;90.30;45.92;;;;;;;;;;5032861;28;20067;-64
2021/12/31 09:05:12;;;;;;;116.13;62.40;;;;;;;;;;5016059;28;20026;-63
2021/12/31 09:07:38;;;;;;;114.03;62.20;;;;;;;;;;5033341;28;20033;-62
2021/12/31 09:10:05;;;;;;;102.32;55.85;;;;;;;;;;5032904;28;20036;-63
2021/12/31 09:12:31;;;;;;;123.30;61.53;;;;;;;;;;5033648;28;20131;-64
2021/12/31 09:14:57;;;;;;;107.70;60.03;;;;;;;;;;5033662;28;20380;-64
2021/12/31 09:17:23;;;;;;;95.72;50.83;;;;;;;;;;5033091;28;20139;-63
2021/12/31 09:19:50;;;;;;;121.75;65.45;;;;;;;;;;5033323;28;20036;-63
2021/12/31 09:22:17;;;;;;;115.50;60.95;;;;;;;;;;5033262;28;20032;-63
2021/12/31 09:24:43;;;;;;;111.05;58.78;;;;;;;;;;5032760;28;20026;-63
2021/12/31 09:27:10;;;;;;;152.23;81.28;;;;;;;;;;5033194;28;20052;-64
2021/12/31 09:29:36;;;;;;;101.03;53.47;;;;;;;;;;5032951;28;20030;-64
2021/12/31 09:32:02;;;;;;;144.57;81.45;;;;;;;;;;5032652;28;20026;-64
2021/12/31 09:34:28;;;;;;;120.60;63.70;;;;;;;;;;5033507;28;20109;-65
2021/12/31 09:36:55;;;;;;;123.22;66.85;;;;;;;;;;5037149;28;20025;-64
2021/12/31 09:39:21;;;;;;;122.18;61.17;;;;;;;;;;5036460;28;20021;-63
2021/12/31 09:41:47;;;;;;;119.22;61.42;;;;;;;;;;5037107;28;20057;-61
2021/12/31 09:44:15;;;;;;;112.05;57.35;;;;;;;;;;5036618;28;20360;-64
2021/12/31 09:46:41;;;;;;;118.65;61.60;;;;;;;;;;5036740;28;20029;-63
2021/12/31 09:49:08;;;;;;;114.72;57.55;;;;;;;;;;5036835;28;20030;-63
2021/12/31 09:51:35;;;;;;;105.43;55.22;;;;;;;;;;5036265;28;20022;-63
2021/12/31 09:54:01;;;;;;;103.53;54.45;;;;;;;;;;5037066;28;20354;-63
2021/12/31 09:56:27;;;;;;;139.90;71.05;;;;;;;;;;5036489;28;20056;-62
2021/12/31 09:58:54;;;;;;;146.27;76.60;;;;;;;;;;5036561;28;20040;-63
2021/12/31 10:01:20;;;;;;;116.50;60.95;;;;;;;;;;5036584;28;20451;-63
2021/12/31 10:03:56;;;;;;;138.65;74.63;;;;;;;;;;5036222;28;20028;-63
2021/12/31 10:06:24;;;;;;;128.30;70.40;;;;;;;;;;5035003;28;20447;-63
2021/12/31 10:08:50;;;;;;;126.97;68.03;;;;;;;;;;5034796;28;20040;-62
2021/12/31 10:11:24;;;;;;;105.43;55.05;;;;;;;;;;5035928;28;20021;-65
2021/12/31 10:13:52;;;;;;;89.07;46.47;;;;;;;;;;5035925;28;20032;-62
2021/12/31 10:16:23;;;;;;;97.35;47.30;;;;;;;;;;5035123;28;20019;-64
2021/12/31 10:18:50;;;;;;;90.47;46.33;;;;;;;;;;5034928;28;20037;-62
2021/12/31 10:21:19;;;;;;;88.00;45.00;;;;;;;;;;5035390;28;20379;-62
2021/12/31 10:23:47;;;;;;;91.13;47.53;;;;;;;;;;5035812;28;20032;-61
2021/12/31 10:26:17;;;;;;;103.25;53.55;;;;;;;;;;5035435;28;20436;-64
2021/12/31 10:28:53;;;;;;;108.38;61.28;;;;;;;;;;5036174;28;20034;-62
2021/12/31 10:31:19;;;;;;;109.20;60.45;;;;;;;;;;5036164;28;20140;-62
2021/12/31 10:33:46;;;;;;;114.50;64.70;;;;;;;;;;5035544;28;20026;-63
2021/12/31 10:36:32;;;;;;;127.28;67.93;;;;;;;;;;5035072;28;20100;-64
2021/12/31 10:38:59;;;;;;;131.00;70.47;;;;;;;;;;5035290;28;20033;-65
2021/12/31 10:41:25;;;;;;;149.18;83.45;;;;;;;;;;5035082;28;20131;-67
2021/12/31 10:43:59;;;;;;;173.43;96.03;;;;;;;;;;5036490;28;20372;-64
2021/12/31 10:46:25;;;;;;;162.90;92.93;;;;;;;;;;5036357;28;20105;-64
2021/12/31 10:48:54;;;;;;;148.57;76.78;;;;;;;;;;5035424;28;20036;-63
2021/12/31 10:51:51;;;;;;;130.07;73.78;;;;;;;;;;5035454;28;20068;-63
2021/12/31 10:54:28;;;;;;;131.80;77.55;;;;;;;;;;5023705;28;20065;-64
2021/12/31 10:56:55;;;;;;;130.93;79.57;;;;;;;;;;5035636;28;20026;-66
2021/12/31 10:59:22;;;;;;;142.90;86.32;;;;;;;;;;5035651;28;20025;-66
2021/12/31 11:01:48;;;;;;;135.02;80.03;;;;;;;;;;5035287;28;20026;-65
2021/12/31 11:04:15;;;;;;;129.75;79.80;;;;;;;;;;5035556;28;20531;-63
2021/12/31 11:06:41;;;;;;;129.60;70.82;;;;;;;;;;5035718;28;20024;-64
2021/12/31 11:09:08;;;;;;;117.43;68.05;;;;;;;;;;5035072;28;20120;-66
2021/12/31 11:11:35;;;;;;;102.05;59.38;;;;;;;;;;5035128;28;20083;-63
2021/12/31 11:14:02;;;;;;;85.90;49.20;;;;;;;;;;5035328;28;20089;-63
2021/12/31 11:16:29;;;;;;;88.45;49.55;;;;;;;;;;5034978;28;20017;-64
2021/12/31 11:18:55;;;;;;;92.00;49.83;;;;;;;;;;5035266;28;20029;-63
2021/12/31 11:21:23;;;;;;;83.43;49.60;;;;;;;;;;5035510;28;20029;-65
2021/12/31 11:23:49;;;;;;;127.43;71.03;;;;;;;;;;5034794;28;20021;-64
2021/12/31 11:26:26;;;;;;;127.70;72.85;;;;;;;;;;5034930;28;20030;-64
2021/12/31 11:28:53;;;;;;;116.25;66.85;;;;;;;;;;5034390;28;20454;-64
2021/12/31 11:31:19;;;;;;;104.90;60.63;;;;;;;;;;5032486;28;20014;-65
2021/12/31 11:33:46;;;;;;;94.18;56.03;;;;;;;;;;5033769;28;20057;-66
2021/12/31 11:36:13;;;;;;;95.68;54.20;;;;;;;;;;5034579;28;20029;-66
2021/12/31 11:38:39;;;;;;;82.90;51.50;;;;;;;;;;5033507;28;20033;-63
2021/12/31 11:41:13;;;;;;;85.07;49.40;;;;;;;;;;5034111;28;20037;-65
2021/12/31 11:43:41;;;;;;;72.93;42.33;;;;;;;;;;5033999;28;20514;-64
2021/12/31 11:46:10;;;;;;;57.55;36.28;;;;;;;;;;5034466;28;20017;-64
2021/12/31 11:48:46;;;;;;;61.63;35.40;;;;;;;;;;5032329;28;20083;-64
2021/12/31 11:51:17;;;;;;;69.93;41.05;;;;;;;;;;5033370;28;20294;-65
2021/12/31 11:53:58;;;;;;;61.50;35.05;;;;;;;;;;5034156;28;20088;-64
2021/12/31 11:56:37;;;;;;;53.85;30.58;;;;;;;;;;5034148;28;20032;-65
2021/12/31 11:59:16;;;;;;;58.85;32.05;;;;;;;;;;5033376;28;20071;-65
2021/12/31 12:01:52;;;;;;;51.85;30.23;;;;;;;;;;5034284;28;20052;-65
2021/12/31 12:04:31;;;;;;;63.70;33.53;;;;;;;;;;5034555;28;20814;-66
2021/12/31 12:06:58;;;;;;;113.10;61.88;;;;;;;;;;5034371;28;20380;-64
2021/12/31 12:09:25;;;;;;;96.85;54.38;;;;;;;;;;5034227;28;20033;-67
2021/12/31 12:12:10;;;;;;;61.47;36.25;;;;;;;;;;5034000;28;20026;-65
2021/12/31 12:14:43;;;;;;;77.80;42.60;;;;;;;;;;5034429;28;20022;-65
2021/12/31 12:17:10;;;;;;;105.72;57.88;;;;;;;;;;5034092;28;20021;-67
2021/12/31 12:19:49;;;;;;;64.13;34.88;;;;;;;;;;5033422;28;20025;-66
2021/12/31 12:22:25;;;;;;;78.85;39.78;;;;;;;;;;5033602;28;20376;-64
2021/12/31 12:24:51;;;;;;;71.72;38.15;;;;;;;;;;5033763;28;20017;-65
2021/12/31 12:27:19;;;;;;;55.35;32.22;;;;;;;;;;5033299;28;20029;-63
2021/12/31 12:29:46;;;;;;;48.35;27.65;;;;;;;;;;5033992;28;20052;-64
2021/12/31 12:32:13;;;;;;;53.63;26.23;;;;;;;;;;5033159;28;20034;-64
2021/12/31 12:34:39;;;;;;;53.88;34.05;;;;;;;;;;5033023;28;20431;-65
2021/12/31 12:37:05;;;;;;;102.85;56.70;;;;;;;;;;5038899;28;20044;-65
2021/12/31 12:39:32;;;;;;;113.80;65.55;;;;;;;;;;5037702;28;20452;-65
2021/12/31 12:41:58;;;;;;;125.07;68.60;;;;;;;;;;5032874;28;20052;-64
2021/12/31 12:44:24;;;;;;;81.03;47.97;;;;;;;;;;5033086;28;20463;-65
2021/12/31 12:46:57;;;;;;;79.82;47.38;;;;;;;;;;5032976;28;20021;-65
2021/12/31 12:49:26;;;;;;;98.88;59.90;;;;;;;;;;5032960;28;20064;-65
2021/12/31 12:51:52;;;;;;;110.60;68.88;;;;;;;;;;5033178;28;20120;-65
2021/12/31 12:54:22;;;;;;;104.70;61.30;;;;;;;;;;5032761;28;20031;-65
2021/12/31 12:56:50;;;;;;;116.85;68.00;;;;;;;;;;5031872;28;20017;-65
2021/12/31 12:59:21;;;;;;;110.40;64.70;;;;;;;;;;5031259;28;20060;-67
2021/12/31 13:01:52;;;;;;;124.03;70.00;;;;;;;;;;5029233;28;20025;-70
2021/12/31 13:04:18;;;;;;;130.30;70.65;;;;;;;;;;5028942;28;20025;-67
2021/12/31 13:07:02;;;;;;;121.22;71.88;;;;;;;;;;5032229;28;20075;-64
2021/12/31 13:09:30;;;;;;;134.80;80.80;;;;;;;;;;5033776;28;20041;-65
2021/12/31 13:12:01;;;;;;;147.00;77.90;;;;;;;;;;5035976;28;20029;-65
2021/12/31 13:14:27;;;;;;;;;;;;;;;;;;5036937;28;20430;-64
2021/12/31 13:16:54;;;;;;;116.38;60.92;;;;;;;;;;5037054;28;19912;-64
2021/12/31 13:19:36;;;;;;;124.30;68.05;;;;;;;;;;5036672;28;20494;-64
2021/12/31 13:22:05;;;;;;;133.43;74.13;;;;;;;;;;5036019;28;20021;-65
2021/12/31 13:24:31;;;;;;;142.43;77.25;;;;;;;;;;5036036;28;20368;-66
2021/12/31 13:27:03;;;;;;;133.20;69.20;;;;;;;;;;5036900;28;20029;-66
2021/12/31 13:29:33;;;;;;;155.02;84.18;;;;;;;;;;5035332;28;20049;-65
2021/12/31 13:32:26;;;;;;;184.93;96.97;;;;;;;;;;5036263;28;20020;-66
2021/12/31 13:34:53;;;;;;;168.57;90.90;;;;;;;;;;5032745;28;20120;-67
2021/12/31 13:37:23;;;;;;;159.85;87.05;;;;;;;;;;5035220;28;20024;-67
2021/12/31 13:39:50;;;;;;;105.55;56.00;;;;;;;;;;5036482;28;20020;-67
2021/12/31 13:42:18;;;;;;;112.32;55.58;;;;;;;;;;5036035;28;20048;-67
2021/12/31 13:44:48;;;;;;;106.68;53.53;;;;;;;;;;5033469;28;20529;-64
2021/12/31 13:47:16;;;;;;;95.28;48.60;;;;;;;;;;5036176;28;20055;-66
2021/12/31 13:49:48;;;;;;;76.85;41.08;;;;;;;;;;5035698;28;20061;-67
2021/12/31 13:52:19;;;;;;;63.03;33.50;;;;;;;;;;5036272;28;20476;-62
2021/12/31 13:54:47;;;;;;;60.83;33.80;;;;;;;;;;5033308;28;20041;-61
2021/12/31 13:57:20;;;;;;;58.90;30.73;;;;;;;;;;5035198;28;20441;-62
2021/12/31 13:59:48;;;;;;;58.45;27.17;;;;;;;;;;5031307;28;20025;-61
2021/12/31 14:02:16;;;;;;;59.58;30.00;;;;;;;;;;5035637;28;20388;-61
2021/12/31 14:04:54;;;;;;;54.00;28.50;;;;;;;;;;5035698;28;20021;-61
2021/12/31 14:10:12;;;;;;;42.85;25.85;;;;;;;;;;5033201;28;20033;-61
2021/12/31 14:15:42;;;;;;;55.15;27.50;;;;;;;;;;5033250;28;20043;-60
2021/12/31 14:18:12;;;;;;;54.60;27.27;;;;;;;;;;5035334;28;20052;-60
2021/12/31 14:20:42;;;;;;;52.72;28.13;;;;;;;;;;5035204;28;20379;-60